Time;durP1;ratioP1;P1;durP2;ratioP2;P2;SDS_P1;SDS_P2;PMS_P1;PMS_P2;Temp;Humidity;BMP_temperature;BMP_pressure;BME280_temperature;BME280_humidity;BME280_pressure;Samples;Min_cycle;Max_cycle;Signal;HPM_P1;HPM_P2
2023/02/03 00:04:50;;;;;;;7.80;6.40;;;;;;;1.46;100.00;99078.05;101445;1290;601554;-61
2023/02/03 00:07:19;;;;;;;8.50;7.40;;;;;;;2.49;100.00;99110.61;104322;1260;61324;-62
2023/02/03 00:09:48;;;;;;;8.60;7.70;;;;;;;2.76;100.00;99095.77;104421;1259;60496;-61
2023/02/03 00:12:16;;;;;;;9.70;8.40;;;;;;;2.89;100.00;99076.45;104487;1260;72658;-61
2023/02/03 00:14:44;;;;;;;10.30;8.90;;;;;;;-128.00;-1.00;-1.00;101757;1254;1013614;-61
2023/02/03 00:17:14;;;;;;;10.90;9.30;;;;;;;-128.00;-1.00;-1.00;101760;1256;1013599;-61
2023/02/03 00:19:47;;;;;;;9.20;7.80;;;;;;;-128.00;-1.00;-1.00;101576;1254;1010262;-60
2023/02/03 00:22:15;;;;;;;10.00;8.60;;;;;;;-128.00;-1.00;-1.00;101687;1256;1011700;-61
2023/02/03 00:24:43;;;;;;;12.20;9.00;;;;;;;-128.00;-1.00;-1.00;101659;1254;1015265;-62
2023/02/03 00:27:13;;;;;;;10.50;8.40;;;;;;;-128.00;-1.00;-1.00;101861;1256;1012791;-61
2023/02/03 00:29:42;;;;;;;10.40;9.10;;;;;;;-128.00;-1.00;-1.00;101708;1253;1013209;-61
2023/02/03 00:32:11;;;;;;;10.10;9.10;;;;;;;-128.00;-1.00;-1.00;101650;1253;1011084;-62
2023/02/03 00:34:39;;;;;;;9.10;8.00;;;;;;;-128.00;-1.00;-1.00;101772;1254;1012418;-62
2023/02/03 00:37:10;;;;;;;10.30;9.10;;;;;;;-128.00;-1.00;-1.00;101687;1254;1013163;-61
2023/02/03 00:39:39;;;;;;;10.10;9.00;;;;;;;-128.00;-1.00;-1.00;101883;1253;1012903;-62
2023/02/03 00:42:07;;;;;;;8.80;7.90;;;;;;;-128.00;-1.00;-1.00;101826;1252;1013615;-61
2023/02/03 00:44:36;;;;;;;10.10;9.10;;;;;;;-128.00;-1.00;-1.00;101851;1253;1011211;-62
2023/02/03 00:47:04;;;;;;;10.60;9.10;;;;;;;-128.00;-1.00;-1.00;101926;1254;1014132;-62
2023/02/03 00:49:33;;;;;;;9.80;8.80;;;;;;;-128.00;-1.00;-1.00;101844;1253;1013231;-61
2023/02/03 00:52:01;;;;;;;9.40;8.20;;;;;;;-128.00;-1.00;-1.00;101801;1254;1012785;-61
2023/02/03 00:54:30;;;;;;;10.30;9.30;;;;;;;-128.00;-1.00;-1.00;101945;1253;1013216;-62
2023/02/03 00:57:01;;;;;;;10.80;9.10;;;;;;;-128.00;-1.00;-1.00;101907;1254;1013089;-65
2023/02/03 00:59:30;;;;;;;10.30;9.30;;;;;;;-128.00;-1.00;-1.00;101849;1255;1010689;-64
2023/02/03 01:01:59;;;;;;;8.80;7.90;;;;;;;-128.00;-1.00;-1.00;101786;1254;1012880;-65
2023/02/03 01:04:27;;;;;;;10.80;9.40;;;;;;;-128.00;-1.00;-1.00;101942;1257;1013432;-63
2023/02/03 01:06:57;;;;;;;11.10;8.80;;;;;;;-128.00;-1.00;-1.00;101805;1254;1013633;-63
2023/02/03 01:09:25;;;;;;;10.80;8.40;;;;;;;-128.00;-1.00;-1.00;101908;1256;1010348;-64
2023/02/03 01:11:54;;;;;;;10.50;8.90;;;;;;;-128.00;-1.00;-1.00;101920;1254;1010879;-63
2023/02/03 01:14:22;;;;;;;10.00;9.00;;;;;;;-128.00;-1.00;-1.00;101772;1254;1016087;-63
2023/02/03 01:16:51;;;;;;;10.40;9.30;;;;;;;-128.00;-1.00;-1.00;101851;1253;1013192;-63
2023/02/03 01:19:19;;;;;;;10.40;9.20;;;;;;;-128.00;-1.00;-1.00;101990;1253;1013391;-63
2023/02/03 01:21:48;;;;;;;10.40;8.90;;;;;;;-128.00;-1.00;-1.00;101894;1257;1011067;-63
2023/02/03 01:24:16;;;;;;;10.30;9.00;;;;;;;-128.00;-1.00;-1.00;101878;1253;1012608;-63
2023/02/03 01:26:45;;;;;;;10.80;8.70;;;;;;;-128.00;-1.00;-1.00;101930;1253;1012847;-63
2023/02/03 01:29:14;;;;;;;11.70;9.80;;;;;;;-128.00;-1.00;-1.00;101950;1259;1015405;-63
2023/02/03 01:31:42;;;;;;;9.60;8.70;;;;;;;-128.00;-1.00;-1.00;101815;1253;1012452;-63
2023/02/03 01:34:12;;;;;;;10.90;8.80;;;;;;;-128.00;-1.00;-1.00;101765;1254;1010351;-64
2023/02/03 01:36:40;;;;;;;11.70;8.70;;;;;;;-128.00;-1.00;-1.00;101850;1257;1011311;-63
2023/02/03 01:39:09;;;;;;;10.30;9.00;;;;;;;-128.00;-1.00;-1.00;101923;1254;1016004;-64
2023/02/03 01:41:38;;;;;;;9.40;8.50;;;;;;;-128.00;-1.00;-1.00;101956;1257;1012846;-64
2023/02/03 01:44:42;;;;;;;9.30;8.40;;;;;;;-128.00;-1.00;-1.00;101848;1253;1012983;-63
2023/02/03 01:47:14;;;;;;;10.70;8.90;;;;;;;-128.00;-1.00;-1.00;101933;1256;1010617;-64
2023/02/03 01:49:48;;;;;;;10.00;8.50;;;;;;;-128.00;-1.00;-1.00;101888;1254;1010908;-64
2023/02/03 01:52:17;;;;;;;10.30;8.90;;;;;;;-128.00;-1.00;-1.00;101875;1254;1013350;-63
2023/02/03 01:54:46;;;;;;;9.80;8.70;;;;;;;-128.00;-1.00;-1.00;101873;1253;1013085;-63
2023/02/03 01:57:17;;;;;;;8.50;7.70;;;;;;;-128.00;-1.00;-1.00;101871;1253;1013215;-63
2023/02/03 01:59:46;;;;;;;9.60;8.70;;;;;;;-128.00;-1.00;-1.00;101890;1253;1010364;-63
2023/02/03 02:02:15;;;;;;;9.50;8.50;;;;;;;-128.00;-1.00;-1.00;101880;1253;1010866;-63
2023/02/03 02:05:01;;;;;;;10.30;8.80;;;;;;;-128.00;-1.00;-1.00;101945;1253;1013806;-64
2023/02/03 02:07:31;;;;;;;9.50;8.50;;;;;;;-128.00;-1.00;-1.00;101799;1254;1012845;-63
2023/02/03 02:10:00;;;;;;;10.90;8.30;;;;;;;-128.00;-1.00;-1.00;101832;1253;1012802;-64
2023/02/03 02:12:32;;;;;;;11.90;9.00;;;;;;;-128.00;-1.00;-1.00;101890;1254;1009711;-63
2023/02/03 02:15:00;;;;;;;10.10;8.50;;;;;;;-128.00;-1.00;-1.00;101758;1254;1012971;-63
2023/02/03 02:17:50;;;;;;;9.40;8.40;;;;;;;-128.00;-1.00;-1.00;101683;1252;1014911;-63
2023/02/03 02:20:31;;;;;;;9.00;7.90;;;;;;;-128.00;-1.00;-1.00;101709;1253;1012939;-63
2023/02/03 02:23:20;;;;;;;9.80;8.90;;;;;;;-128.00;-1.00;-1.00;101759;1257;1015937;-63
2023/02/03 02:26:00;;;;;;;9.30;8.10;;;;;;;-128.00;-1.00;-1.00;101752;1254;1010780;-63
2023/02/03 02:28:43;;;;;;;11.20;8.20;;;;;;;-128.00;-1.00;-1.00;101763;1259;1011622;-63
2023/02/03 02:31:39;;;;;;;9.70;8.30;;;;;;;-128.00;-1.00;-1.00;101773;1260;1012741;-63
2023/02/03 02:34:31;;;;;;;8.50;7.70;;;;;;;-128.00;-1.00;-1.00;101708;1254;1013512;-63
2023/02/03 02:37:27;;;;;;;11.70;8.20;;;;;;;-128.00;-1.00;-1.00;101759;1254;1013597;-63
2023/02/03 02:40:54;;;;;;;9.90;8.60;;;;;;;-128.00;-1.00;-1.00;101556;1253;1011046;-63
2023/02/03 02:43:52;;;;;;;8.70;7.20;;;;;;;-128.00;-1.00;-1.00;101421;1254;1010564;-62
2023/02/03 02:46:51;;;;;;;10.70;8.50;;;;;;;-128.00;-1.00;-1.00;101839;1252;1015058;-63
2023/02/03 02:49:41;;;;;;;9.80;8.00;;;;;;;-128.00;-1.00;-1.00;101964;1254;1013609;-63
2023/02/03 02:52:10;;;;;;;11.30;8.20;;;;;;;-128.00;-1.00;-1.00;101908;1253;1012416;-62
2023/02/03 02:54:43;;;;;;;9.60;7.90;;;;;;;-128.00;-1.00;-1.00;101928;1254;1013665;-64
2023/02/03 02:57:13;;;;;;;8.90;8.00;;;;;;;-128.00;-1.00;-1.00;101878;1254;1010902;-62
2023/02/03 02:59:42;;;;;;;11.20;8.70;;;;;;;-128.00;-1.00;-1.00;101780;1254;1012517;-63
2023/02/03 03:02:11;;;;;;;11.00;8.60;;;;;;;-128.00;-1.00;-1.00;101869;1254;1013299;-66
2023/02/03 03:04:40;;;;;;;10.20;8.10;;;;;;;-128.00;-1.00;-1.00;101839;1252;1016029;-64
2023/02/03 03:07:17;;;;;;;11.20;9.30;;;;;;;-128.00;-1.00;-1.00;101893;1253;1010417;-63
2023/02/03 03:09:50;;;;;;;11.70;8.50;;;;;;;-128.00;-1.00;-1.00;101907;1253;1010586;-63
2023/02/03 03:12:23;;;;;;;8.80;7.80;;;;;;;-128.00;-1.00;-1.00;101893;1254;1012940;-64
2023/02/03 03:14:59;;;;;;;9.70;8.30;;;;;;;-128.00;-1.00;-1.00;101914;1253;1015683;-63
2023/02/03 03:17:31;;;;;;;8.90;8.00;;;;;;;-128.00;-1.00;-1.00;101679;1256;1016155;-63
2023/02/03 03:20:07;;;;;;;10.60;8.40;;;;;;;-128.00;-1.00;-1.00;101791;1253;1010634;-63
2023/02/03 03:22:40;;;;;;;9.80;8.50;;;;;;;-128.00;-1.00;-1.00;101756;1253;1010892;-63
2023/02/03 03:25:14;;;;;;;10.50;8.10;;;;;;;-128.00;-1.00;-1.00;101761;1253;1013378;-63
2023/02/03 03:27:47;;;;;;;10.80;8.40;;;;;;;-128.00;-1.00;-1.00;101776;1253;1012703;-63
2023/02/03 03:30:23;;;;;;;10.80;9.10;;;;;;;-128.00;-1.00;-1.00;101706;1254;1015339;-63
2023/02/03 03:32:51;;;;;;;12.10;8.80;;;;;;;-128.00;-1.00;-1.00;101740;1253;1009803;-64
2023/02/03 03:35:20;;;;;;;15.60;10.40;;;;;;;-128.00;-1.00;-1.00;101780;1253;1010395;-63
2023/02/03 03:37:59;;;;;;;11.80;8.90;;;;;;;-128.00;-1.00;-1.00;101757;1254;1013565;-63
2023/02/03 03:40:34;;;;;;;11.30;8.80;;;;;;;-128.00;-1.00;-1.00;101682;1253;1014854;-63
2023/02/03 03:43:07;;;;;;;10.20;8.50;;;;;;;-128.00;-1.00;-1.00;101671;1256;1012607;-62
2023/02/03 03:45:48;;;;;;;9.10;8.00;;;;;;;-128.00;-1.00;-1.00;101783;1258;1011496;-62
2023/02/03 03:48:24;;;;;;;8.30;7.50;;;;;;;-128.00;-1.00;-1.00;101865;1253;1010840;-62
2023/02/03 03:50:57;;;;;;;10.40;8.80;;;;;;;-128.00;-1.00;-1.00;102017;1253;1015507;-62
2023/02/03 03:53:26;;;;;;;8.80;7.90;;;;;;;-128.00;-1.00;-1.00;101887;1256;1015734;-63
2023/02/03 03:55:54;;;;;;;10.70;8.20;;;;;;;-128.00;-1.00;-1.00;101771;1254;1013707;-62
2023/02/03 03:58:28;;;;;;;9.50;7.90;;;;;;;-128.00;-1.00;-1.00;101876;1259;1010399;-62
2023/02/03 04:00:59;;;;;;;11.60;8.90;;;;;;;-128.00;-1.00;-1.00;101873;1256;1014146;-62
2023/02/03 04:03:31;;;;;;;10.50;8.30;;;;;;;-128.00;-1.00;-1.00;101763;1257;1012433;-61
2023/02/03 04:06:00;;;;;;;9.70;8.20;;;;;;;-128.00;-1.00;-1.00;101837;1257;1012973;-62
2023/02/03 04:08:29;;;;;;;9.80;8.60;;;;;;;-128.00;-1.00;-1.00;101903;1254;1012444;-62
2023/02/03 04:10:57;;;;;;;11.10;9.00;;;;;;;-128.00;-1.00;-1.00;101841;1253;1010028;-62
2023/02/03 04:13:25;;;;;;;12.50;9.20;;;;;;;-128.00;-1.00;-1.00;101972;1253;1010668;-62
2023/02/03 04:15:54;;;;;;;9.60;7.90;;;;;;;-128.00;-1.00;-1.00;101939;1254;1013750;-61
2023/02/03 04:18:23;;;;;;;10.20;9.10;;;;;;;-128.00;-1.00;-1.00;101866;1254;1012898;-61
2023/02/03 04:20:51;;;;;;;9.00;8.10;;;;;;;-128.00;-1.00;-1.00;101747;1254;1012402;-61
2023/02/03 04:23:20;;;;;;;10.70;7.80;;;;;;;-128.00;-1.00;-1.00;102043;1256;1013319;-62
2023/02/03 04:25:48;;;;;;;10.90;8.00;;;;;;;-128.00;-1.00;-1.00;101841;1254;1011274;-61
2023/02/03 04:28:16;;;;;;;11.50;8.60;;;;;;;-128.00;-1.00;-1.00;101831;1254;1013460;-62
2023/02/03 04:30:45;;;;;;;15.30;9.50;;;;;;;-128.00;-1.00;-1.00;101697;1254;1015829;-63
2023/02/03 04:33:14;;;;;;;24.30;14.00;;;;;;;-128.00;-1.00;-1.00;101767;1254;1013379;-62
2023/02/03 04:35:42;;;;;;;32.10;18.00;;;;;;;-128.00;-1.00;-1.00;101733;1253;1010940;-62
2023/02/03 04:38:10;;;;;;;25.20;15.00;;;;;;;-128.00;-1.00;-1.00;101879;1256;1011306;-62
2023/02/03 04:40:38;;;;;;;16.10;11.70;;;;;;;-128.00;-1.00;-1.00;101715;1253;1016019;-62
2023/02/03 04:43:07;;;;;;;14.30;10.80;;;;;;;-128.00;-1.00;-1.00;102187;1249;1013586;-63
2023/02/03 04:45:35;;;;;;;14.30;10.80;;;;;;;-128.00;-1.00;-1.00;102155;1253;1015232;-63
2023/02/03 04:48:04;;;;;;;14.40;12.50;;;;;;;-128.00;-1.00;-1.00;102192;1251;1010650;-62
2023/02/03 04:50:33;;;;;;;12.60;10.80;;;;;;;-128.00;-1.00;-1.00;102172;1250;1012954;-62
2023/02/03 04:53:02;;;;;;;12.30;10.50;;;;;;;-128.00;-1.00;-1.00;102171;1250;1014943;-62
2023/02/03 04:55:31;;;;;;;11.90;10.10;;;;;;;-128.00;-1.00;-1.00;102210;1250;1012757;-62
2023/02/03 04:58:00;;;;;;;11.70;9.90;;;;;;;-128.00;-1.00;-1.00;102229;1250;1013010;-63
2023/02/03 05:00:28;;;;;;;22.40;16.30;;;;;;;-128.00;-1.00;-1.00;102025;1250;1010231;-64
2023/02/03 05:02:58;;;;;;;22.00;15.00;;;;;;;-128.00;-1.00;-1.00;102024;1256;1011850;-63
2023/02/03 05:05:26;;;;;;;18.60;13.20;;;;;;;-128.00;-1.00;-1.00;102085;1254;1013117;-62
2023/02/03 05:07:55;;;;;;;16.70;12.10;;;;;;;-128.00;-1.00;-1.00;102048;1251;1015737;-62
2023/02/03 05:10:24;;;;;;;12.70;10.80;;;;;;;-128.00;-1.00;-1.00;102126;1250;1013041;-62
2023/02/03 05:12:52;;;;;;;12.50;11.10;;;;;;;-128.00;-1.00;-1.00;102201;1251;1010621;-62
2023/02/03 05:15:21;;;;;;;12.30;11.00;;;;;;;-128.00;-1.00;-1.00;102161;1250;1013887;-62
2023/02/03 05:17:56;;;;;;;15.00;10.50;;;;;;;-128.00;-1.00;-1.00;102151;1250;1012715;-67
2023/02/03 05:20:24;;;;;;;16.10;13.00;;;;;;;-128.00;-1.00;-1.00;102137;1250;1012551;-67
2023/02/03 05:22:53;;;;;;;17.20;13.00;;;;;;;-128.00;-1.00;-1.00;102222;1251;1013018;-67
2023/02/03 05:25:22;;;;;;;20.00;12.90;;;;;;;-128.00;-1.00;-1.00;102259;1253;1009881;-68
2023/02/03 05:27:50;;;;;;;16.50;11.60;;;;;;;-128.00;-1.00;-1.00;102130;1251;1013385;-70
2023/02/03 05:30:19;;;;;;;12.50;10.20;;;;;;;-128.00;-1.00;-1.00;102123;1250;1016127;-70
2023/02/03 05:32:48;;;;;;;14.20;10.60;;;;;;;-128.00;-1.00;-1.00;102104;1250;1012420;-67
2023/02/03 05:35:17;;;;;;;13.00;9.90;;;;;;;-128.00;-1.00;-1.00;102140;1250;1013596;-69
2023/02/03 05:37:45;;;;;;;13.50;11.00;;;;;;;-128.00;-1.00;-1.00;102070;1250;1011337;-69
2023/02/03 05:43:01;;;;;;;13.20;9.90;;;;;;;-128.00;-1.00;-1.00;102249;1250;1015977;-65
2023/02/03 05:45:30;;;;;;;12.50;10.60;;;;;;;-128.00;-1.00;-1.00;102103;1250;1013199;-63
2023/02/03 05:48:01;;;;;;;15.90;11.60;;;;;;;-128.00;-1.00;-1.00;102182;1253;1013320;-63
2023/02/03 05:50:33;;;;;;;15.40;10.90;;;;;;;-128.00;-1.00;-1.00;102330;1251;1010783;-64
2023/02/03 05:53:08;;;;;;;14.80;10.20;;;;;;;-128.00;-1.00;-1.00;102252;1254;1011181;-63
2023/02/03 05:55:37;;;;;;;12.30;10.50;;;;;;;-128.00;-1.00;-1.00;102148;1250;1015863;-65
2023/02/03 05:58:05;;;;;;;13.90;10.40;;;;;;;-128.00;-1.00;-1.00;102220;1251;1013669;-65
2023/02/03 06:00:34;;;;;;;13.00;10.60;;;;;;;-128.00;-1.00;-1.00;102072;1250;1013153;-62
2023/02/03 06:03:03;;;;;;;18.00;10.70;;;;;;;-128.00;-1.00;-1.00;102279;1253;1011006;-66
2023/02/03 06:05:32;;;;;;;11.20;9.70;;;;;;;-128.00;-1.00;-1.00;102380;1253;1013704;-69
2023/02/03 06:08:03;;;;;;;11.70;9.70;;;;;;;-128.00;-1.00;-1.00;102742;1250;1015730;-65
2023/02/03 06:10:32;;;;;;;11.60;9.50;;;;;;;-128.00;-1.00;-1.00;102342;1253;1013034;-70
2023/02/03 06:13:09;;;;;;;13.30;9.90;;;;;;;-128.00;-1.00;-1.00;101986;1256;1013607;-73
2023/02/03 06:15:38;;;;;;;14.00;10.30;;;;;;;-128.00;-1.00;-1.00;102252;1250;1009866;-71
2023/02/03 06:18:09;;;;;;;11.60;9.30;;;;;;;-128.00;-1.00;-1.00;101975;1251;1010902;-70
2023/02/03 06:20:38;;;;;;;14.40;10.20;;;;;;;-128.00;-1.00;-1.00;101858;1251;1015877;-69
2023/02/03 06:23:07;;;;;;;13.30;9.30;;;;;;;-128.00;-1.00;-1.00;102147;1249;1012782;-72
2023/02/03 06:25:37;;;;;;;15.00;9.80;;;;;;;-128.00;-1.00;-1.00;102255;1250;1012404;-71
2023/02/03 06:28:05;;;;;;;13.30;9.30;;;;;;;-128.00;-1.00;-1.00;101969;1254;1010470;-72
2023/02/03 06:30:36;;;;;;;11.50;9.30;;;;;;;-128.00;-1.00;-1.00;102322;1251;1011253;-73
2023/02/03 06:33:05;;;;;;;13.30;10.50;;;;;;;-128.00;-1.00;-1.00;102113;1257;1012337;-72
2023/02/03 06:35:35;;;;;;;14.40;10.70;;;;;;;-128.00;-1.00;-1.00;102292;1251;1013100;-68
2023/02/03 06:38:04;;;;;;;15.40;11.00;;;;;;;-128.00;-1.00;-1.00;102223;1251;1013392;-73
2023/02/03 06:40:33;;;;;;;14.50;11.20;;;;;;;-128.00;-1.00;-1.00;102263;1250;1013152;-72
2023/02/03 06:43:02;;;;;;;17.80;10.80;;;;;;;-128.00;-1.00;-1.00;101879;1254;1011131;-72
2023/02/03 06:45:31;;;;;;;14.00;11.10;;;;;;;-128.00;-1.00;-1.00;102232;1254;1013380;-74
2023/02/03 06:48:00;;;;;;;23.80;11.70;;;;;;;-128.00;-1.00;-1.00;101836;1251;1012957;-72
2023/02/03 06:50:30;;;;;;;13.70;10.60;;;;;;;-128.00;-1.00;-1.00;102316;1250;1012862;-72
2023/02/03 06:52:58;;;;;;;14.50;10.40;;;;;;;-128.00;-1.00;-1.00;102034;1256;1013692;-71
2023/02/03 06:55:26;;;;;;;14.30;10.40;;;;;;;-128.00;-1.00;-1.00;102247;1251;1013402;-73
2023/02/03 06:57:56;;;;;;;13.70;10.90;;;;;;;-128.00;-1.00;-1.00;101906;1257;1012768;-72
2023/02/03 07:00:25;;;;;;;13.50;10.50;;;;;;;-128.00;-1.00;-1.00;102228;1249;1015800;-69
2023/02/03 07:02:54;;;;;;;16.30;10.50;;;;;;;-128.00;-1.00;-1.00;101815;1254;1012475;-65
2023/02/03 07:05:23;;;;;;;16.00;10.80;;;;;;;-128.00;-1.00;-1.00;102207;1251;1011195;-67
2023/02/03 07:07:52;;;;;;;14.30;10.20;;;;;;;-128.00;-1.00;-1.00;101956;1257;1011725;-72
2023/02/03 07:10:20;;;;;;;12.50;10.00;;;;;;;-128.00;-1.00;-1.00;101957;1258;1013209;-68
2023/02/03 07:12:50;;;;;;;14.20;10.30;;;;;;;-128.00;-1.00;-1.00;102377;1250;1013396;-70
2023/02/03 07:15:18;;;;;;;13.00;9.80;;;;;;;-128.00;-1.00;-1.00;102336;1254;1016100;-65
2023/02/03 07:17:53;;;;;;;12.40;9.60;;;;;;;-128.00;-1.00;-1.00;102350;1250;1009958;-67
2023/02/03 07:20:22;;;;;;;13.60;9.60;;;;;;;-128.00;-1.00;-1.00;102017;1250;1011251;-67
2023/02/03 07:22:56;;;;;;;12.10;9.10;;;;;;;-128.00;-1.00;-1.00;102135;1254;1013682;-71
2023/02/03 07:25:24;;;;;;;12.70;9.80;;;;;;;-128.00;-1.00;-1.00;102315;1253;1012390;-67
2023/02/03 07:27:53;;;;;;;10.90;9.70;;;;;;;-128.00;-1.00;-1.00;102263;1251;1012438;-69
2023/02/03 07:30:22;;;;;;;12.30;10.00;;;;;;;-128.00;-1.00;-1.00;102090;1251;1009890;-67
2023/02/03 07:32:52;;;;;;;11.30;9.10;;;;;;;-128.00;-1.00;-1.00;102088;1250;1011323;-71
2023/02/03 07:35:22;;;;;;;11.50;9.70;;;;;;;-128.00;-1.00;-1.00;101761;1251;1013373;-74
2023/02/03 10:02:18;;;;;;;3.50;3.20;;;;;;;1.84;100.00;99269.45;101999;1294;600738;-67
2023/02/03 10:05:12;;;;;;;3.90;3.60;;;;;;;2.95;100.00;99313.86;103721;1268;62481;-72
2023/02/03 10:07:56;;;;;;;3.70;3.40;;;;;;;3.31;100.00;99300.41;103628;1270;60890;-66
2023/02/03 10:10:25;;;;;;;4.30;3.80;;;;;;;3.49;100.00;99277.54;104043;1281;72371;-63
2023/02/03 10:13:00;;;;;;;4.00;3.60;;;;;;;3.64;100.00;99266.30;103962;1265;68652;-66
2023/02/03 10:15:31;;;;;;;4.40;4.00;;;;;;;3.81;100.00;99256.77;103833;1269;239748;-64
2023/02/03 10:18:05;;;;;;;4.60;4.20;;;;;;;3.91;100.00;99254.83;104319;1267;60486;-66
2023/02/03 10:20:47;;;;;;;4.80;4.30;;;;;;;4.05;100.00;99252.78;104472;1270;61256;-65
2023/02/03 10:23:22;;;;;;;4.60;4.20;;;;;;;4.13;100.00;99247.58;104098;1262;70709;-69
2023/02/03 10:25:57;;;;;;;4.60;4.10;;;;;;;4.22;100.00;99248.25;104284;1267;69449;-65
2023/02/03 10:28:29;;;;;;;5.80;4.20;;;;;;;4.36;100.00;99246.17;104098;1268;71637;-69
2023/02/03 10:31:00;;;;;;;4.70;4.20;;;;;;;4.43;100.00;99249.47;104174;1267;61001;-67
2023/02/03 10:33:30;;;;;;;4.00;3.70;;;;;;;4.47;100.00;99247.63;104133;1267;60911;-66
2023/02/03 10:41:10;;;;;;;5.00;4.00;;;;;;;4.60;100.00;99245.95;104219;1259;69816;-71
2023/02/03 10:43:52;;;;;;;4.30;3.90;;;;;;;4.65;100.00;99242.17;104004;1264;71390;-70
2023/02/03 10:46:34;;;;;;;4.20;3.70;;;;;;;4.67;100.00;99243.51;104251;1261;60825;-68
2023/02/03 10:49:03;;;;;;;4.70;4.20;;;;;;;4.68;100.00;99244.52;104270;1259;60889;-68
2023/02/03 10:51:37;;;;;;;4.00;3.70;;;;;;;4.67;100.00;99246.63;104104;1262;72260;-69
2023/02/03 10:54:30;;;;;;;3.70;3.40;;;;;;;4.69;100.00;99251.96;104416;1262;70083;-69
2023/02/03 10:57:11;;;;;;;4.10;3.40;;;;;;;4.70;100.00;99253.69;104789;1260;71937;-67
2023/02/03 10:59:44;;;;;;;3.70;3.40;;;;;;;4.71;100.00;99254.17;103981;1264;60875;-66
2023/02/03 11:02:22;;;;;;;3.50;3.20;;;;;;;4.79;100.00;99253.98;104670;1259;61151;-67
2023/02/03 11:05:10;;;;;;;5.60;3.50;;;;;;;4.81;100.00;99251.66;104328;1266;75502;-68
2023/02/03 11:07:40;;;;;;;4.30;3.40;;;;;;;4.81;100.00;99243.84;103921;1263;70084;-68
2023/02/03 11:10:34;;;;;;;4.90;3.50;;;;;;;4.75;100.00;99244.36;103984;1264;71653;-69
2023/02/03 11:13:09;;;;;;;;;;;;;;;4.65;100.00;99242.34;104377;1264;60886;-69
2023/02/03 11:15:49;;;;;;;6.50;4.00;;;;;;;4.59;100.00;99245.62;104359;1262;60930;-71
2023/02/03 11:18:54;;;;;;;4.30;3.70;;;;;;;4.62;100.00;99253.19;104192;1263;72873;-68
2023/02/03 11:21:24;;;;;;;4.30;3.20;;;;;;;4.61;100.00;99255.46;104719;1256;68424;-68
2023/02/03 11:23:55;;;;;;;3.10;2.80;;;;;;;4.65;100.00;99258.49;104616;1251;71850;-68
2023/02/03 11:26:59;;;;;;;4.00;3.60;;;;;;;4.61;100.00;99257.55;104675;1266;60921;-68
2023/02/03 11:29:33;;;;;;;3.20;2.90;;;;;;;4.57;100.00;99255.23;104373;1252;60888;-68
2023/02/03 11:32:22;;;;;;;3.50;3.20;;;;;;;4.61;100.00;99253.73;104700;1262;73692;-68
2023/02/03 11:35:04;;;;;;;3.20;2.90;;;;;;;4.63;100.00;99253.15;104788;1256;69351;-68
2023/02/03 11:37:39;;;;;;;3.60;3.20;;;;;;;4.65;100.00;99257.10;105322;1253;72648;-71
2023/02/03 11:40:13;;;;;;;6.50;3.70;;;;;;;4.67;100.00;99256.53;104744;1266;60873;-68
2023/02/03 11:42:43;;;;;;;3.10;2.90;;;;;;;4.73;100.00;99254.30;104612;1256;60765;-70
2023/02/03 11:45:15;;;;;;;2.90;2.60;;;;;;;4.81;100.00;99251.84;105082;1253;72474;-69
2023/02/03 11:47:46;;;;;;;3.00;2.70;;;;;;;4.92;100.00;99245.67;104426;1271;69458;-69
2023/02/03 11:50:37;;;;;;;3.10;2.70;;;;;;;5.03;100.00;99246.23;104611;1254;72071;-69
2023/02/03 11:53:26;;;;;;;2.80;2.60;;;;;;;5.17;100.00;99241.70;104618;1256;60864;-69
2023/02/03 11:56:29;;;;;;;3.20;2.90;;;;;;;5.32;100.00;99242.33;104757;1251;61166;-67
2023/02/03 11:59:13;;;;;;;3.70;2.90;;;;;;;5.28;100.00;99234.80;104658;1256;74431;-65
2023/02/03 12:01:50;;;;;;;4.50;2.70;;;;;;;5.29;100.00;99235.81;104745;1254;68966;-71
2023/02/03 12:04:40;;;;;;;4.50;2.40;;;;;;;5.29;100.00;99238.42;104587;1255;71224;-68
2023/02/03 12:07:27;;;;;;;2.90;2.60;;;;;;;5.31;100.00;99234.19;105316;1256;60831;-68
2023/02/03 12:10:03;;;;;;;2.50;2.30;;;;;;;5.27;100.00;99233.41;104652;1261;60754;-71
2023/02/03 12:12:36;;;;;;;2.30;2.10;;;;;;;5.31;100.00;99237.83;104775;1256;72970;-68
2023/02/03 12:15:05;;;;;;;2.50;2.30;;;;;;;5.28;100.00;99244.17;105031;1254;69565;-69
2023/02/03 12:17:43;;;;;;;2.20;2.00;;;;;;;5.24;100.00;99243.59;104728;1256;71527;-69
2023/02/03 12:20:20;;;;;;;3.00;2.20;;;;;;;5.23;100.00;99242.05;104522;1256;60841;-71
2023/02/03 12:23:01;;;;;;;2.30;2.10;;;;;;;5.15;100.00;99242.96;104787;1256;60824;-72
2023/02/03 12:25:44;;;;;;;2.00;1.70;;;;;;;5.20;100.00;99237.45;104679;1252;72399;-70
2023/02/03 12:28:26;;;;;;;2.30;2.00;;;;;;;5.22;100.00;99237.21;104482;1255;70208;-70
2023/02/03 12:31:11;;;;;;;1.80;1.70;;;;;;;5.23;100.00;99236.48;104876;1257;73587;-69
2023/02/03 12:33:43;;;;;;;5.20;1.50;;;;;;;5.16;100.00;99236.52;104630;1254;60892;-66
2023/02/03 12:36:15;;;;;;;1.50;1.40;;;;;;;5.11;100.00;99233.86;104438;1258;61290;-68
2023/02/03 12:38:46;;;;;;;1.90;1.70;;;;;;;5.10;100.00;99242.07;104503;1258;73519;-67
2023/02/03 12:41:27;;;;;;;1.70;1.60;;;;;;;5.10;100.00;99244.14;104704;1253;68925;-66
2023/02/03 12:43:59;;;;;;;1.80;1.70;;;;;;;5.02;100.00;99244.71;104643;1255;71415;-69
2023/02/03 12:46:36;;;;;;;1.50;1.40;;;;;;;4.93;100.00;99247.36;104720;1269;60950;-71
2023/02/03 12:49:13;;;;;;;2.60;2.40;;;;;;;4.86;100.00;99251.18;104584;1256;61106;-66
2023/02/03 12:52:11;;;;;;;3.50;2.60;;;;;;;4.81;100.00;99250.12;104682;1256;72157;-67
2023/02/03 12:55:19;;;;;;;3.10;2.80;;;;;;;4.62;100.00;99252.84;104729;1257;68150;-71
2023/02/03 12:58:11;;;;;;;3.00;2.70;;;;;;;4.47;100.00;99251.81;104761;1256;71750;-64
2023/02/03 13:00:59;;;;;;;5.00;4.20;;;;;;;4.32;100.00;99248.86;104918;1256;60882;-66
2023/02/03 13:03:49;;;;;;;4.20;3.70;;;;;;;4.18;100.00;99250.41;104933;1253;61045;-66
2023/02/03 13:06:21;;;;;;;3.10;2.80;;;;;;;4.19;100.00;99243.27;105214;1262;73723;-68
2023/02/03 13:08:53;;;;;;;2.80;2.60;;;;;;;4.28;100.00;99242.19;104923;1254;70107;-67
2023/02/03 13:11:31;;;;;;;3.90;2.80;;;;;;;4.30;100.00;99243.38;104759;1271;72101;-70
2023/02/03 13:15:04;;;;;;;3.70;3.20;;;;;;;4.26;100.00;99242.07;104575;1259;60731;-68
2023/02/03 13:17:38;;;;;;;2.80;2.60;;;;;;;4.31;100.00;99249.95;104215;1273;60870;-66
2023/02/03 13:20:17;;;;;;;3.30;2.90;;;;;;;4.30;100.00;99249.95;104433;1272;73537;-68
2023/02/03 13:22:46;;;;;;;4.20;3.20;;;;;;;4.26;100.00;99246.58;104567;1272;68764;-67
2023/02/03 13:25:39;;;;;;;3.50;3.00;;;;;;;4.29;100.00;99244.09;104610;1261;72628;-71
2023/02/03 13:28:15;;;;;;;4.50;3.50;;;;;;;4.30;100.00;99244.23;104831;1256;60863;-75
2023/02/03 13:30:47;;;;;;;3.90;3.30;;;;;;;4.25;100.00;99244.34;104974;1256;60917;-71
2023/02/03 13:33:40;;;;;;;4.40;3.00;;;;;;;4.29;100.00;99240.98;104586;1256;72825;-69
2023/02/03 13:36:28;;;;;;;3.80;3.40;;;;;;;4.33;100.00;99238.96;104676;1258;69261;-65
2023/02/03 13:39:17;;;;;;;3.10;2.80;;;;;;;4.33;100.00;99238.77;104449;1255;72448;-70
2023/02/03 13:42:17;;;;;;;4.20;3.60;;;;;;;4.27;100.00;99245.52;104556;1255;60872;-68
2023/02/03 13:44:50;;;;;;;3.70;3.10;;;;;;;4.25;100.00;99248.16;104516;1259;60873;-72
2023/02/03 13:47:23;;;;;;;4.40;3.70;;;;;;;4.22;100.00;99249.10;104602;1257;73103;-69
2023/02/03 13:49:54;;;;;;;4.90;2.90;;;;;;;4.18;100.00;99251.46;104474;1259;69440;-69
2023/02/03 13:52:28;;;;;;;3.70;3.40;;;;;;;4.09;100.00;99246.11;104630;1256;73248;-67
2023/02/03 13:54:57;;;;;;;3.80;3.00;;;;;;;4.03;100.00;99248.49;104523;1269;60859;-70
2023/02/03 13:57:35;;;;;;;3.40;3.10;;;;;;;4.05;100.00;99250.02;104551;1270;60870;-69
2023/02/03 14:00:07;;;;;;;2.60;2.40;;;;;;;3.98;100.00;99250.52;104447;1258;72066;-71
2023/02/03 14:02:43;;;;;;;3.10;2.40;;;;;;;3.91;100.00;99247.02;104671;1257;69624;-72
2023/02/03 14:05:37;;;;;;;2.30;2.10;;;;;;;3.86;100.00;99249.55;104884;1253;72671;-71
2023/02/03 14:08:28;;;;;;;2.70;2.40;;;;;;;3.77;100.00;99246.11;104660;1256;60767;-70
2023/02/03 14:11:35;;;;;;;2.80;2.50;;;;;;;3.75;100.00;99242.86;104810;1259;60701;-70
2023/02/03 14:14:04;;;;;;;2.70;2.30;;;;;;;3.77;100.00;99240.73;104542;1259;72993;-69
2023/02/03 14:16:35;;;;;;;2.50;2.00;;;;;;;3.78;100.00;99241.59;104731;1256;69773;-72
2023/02/03 14:19:27;;;;;;;2.80;1.90;;;;;;;3.78;100.00;99246.09;104397;1272;73194;-71
2023/02/03 14:22:03;;;;;;;2.10;1.70;;;;;;;3.68;100.00;99246.64;104602;1257;60844;-66
2023/02/03 14:24:38;;;;;;;2.20;1.80;;;;;;;3.66;100.00;99245.66;104389;1260;60885;-68